Time;durP1;ratioP1;P1;durP2;ratioP2;P2;SDS_P1;SDS_P2;PMS_P1;PMS_P2;Temp;Humidity;BMP_temperature;BMP_pressure;BME280_temperature;BME280_humidity;BME280_pressure;Samples;Min_cycle;Max_cycle;Signal;HPM_P1;HPM_P2
2023/07/31 00:00:12;;;;;;;0.52;0.45;;;14.90;99.90;;;;;;5070955;28;20120;-73
2023/07/31 00:02:38;;;;;;;0.00;0.00;;;14.90;99.90;;;;;;5072103;28;20412;-73
2023/07/31 00:05:04;;;;;;;0.10;0.10;;;14.90;99.90;;;;;;5071888;28;20044;-73
2023/07/31 00:07:29;;;;;;;0.22;0.03;;;14.90;99.90;;;;;;5071895;28;20044;-73
2023/07/31 00:09:56;;;;;;;0.00;0.00;;;14.90;99.90;;;;;;5071648;28;20461;-73
2023/07/31 00:12:22;;;;;;;1.83;0.85;;;14.90;99.90;;;;;;5061828;28;20053;-73
2023/07/31 00:14:48;;;;;;;0.13;0.13;;;14.90;99.90;;;;;;5062925;28;20106;-73
2023/07/31 00:17:13;;;;;;;0.05;0.05;;;14.90;99.90;;;;;;5063299;28;20035;-73
2023/07/31 00:19:39;;;;;;;0.00;0.00;;;16.10;99.90;;;;;;5071990;28;20483;-73
2023/07/31 00:22:05;;;;;;;1.40;0.57;;;14.80;99.90;;;;;;5071078;28;20045;-73
2023/07/31 00:24:30;;;;;;;0.90;0.45;;;14.80;99.90;;;;;;5070802;28;20456;-73
2023/07/31 00:26:56;;;;;;;0.10;0.10;;;14.80;99.90;;;;;;5073977;28;20045;-73
2023/07/31 00:29:21;;;;;;;0.25;0.25;;;14.80;99.90;;;;;;5074952;28;20102;-73
2023/07/31 00:31:47;;;;;;;0.45;0.13;;;14.80;99.90;;;;;;5067464;28;20040;-73
2023/07/31 00:34:12;;;;;;;0.20;0.13;;;15.60;99.90;;;;;;5074022;28;20170;-73
2023/07/31 00:36:38;;;;;;;0.10;0.10;;;14.80;99.90;;;;;;5074907;28;20495;-73
2023/07/31 00:39:04;;;;;;;0.20;0.20;;;14.80;99.90;;;;;;5075169;28;20084;-73
2023/07/31 00:41:30;;;;;;;0.28;0.10;;;14.80;99.90;;;;;;5065705;28;20045;-73
2023/07/31 00:43:56;;;;;;;0.00;0.00;;;14.80;99.90;;;;;;5074950;28;20040;-73
2023/07/31 00:46:21;;;;;;;0.60;0.35;;;14.80;99.90;;;;;;5075097;28;20041;-73
2023/07/31 00:48:48;;;;;;;0.00;0.00;;;14.80;99.90;;;;;;5075032;28;20032;-73
2023/07/31 00:51:14;;;;;;;0.28;0.20;;;14.80;99.90;;;;;;5074193;28;20040;-73
2023/07/31 00:53:40;;;;;;;0.00;0.00;;;14.80;99.90;;;;;;5074773;28;20043;-73
2023/07/31 00:56:06;;;;;;;0.63;0.38;;;14.80;99.90;;;;;;5074593;28;20043;-73
2023/07/31 00:58:31;;;;;;;0.32;0.28;;;14.80;99.90;;;;;;5074640;28;20032;-73
2023/07/31 01:00:57;;;;;;;0.57;0.30;;;14.80;99.90;;;;;;5067290;28;20040;-73
2023/07/31 01:03:23;;;;;;;0.52;0.25;;;14.80;99.90;;;;;;5068939;28;20080;-73
2023/07/31 01:05:54;;;;;;;0.35;0.15;;;14.80;99.90;;;;;;5072796;28;20075;-73
2023/07/31 01:08:22;;;;;;;0.10;0.10;;;14.80;99.90;;;;;;5074617;28;20033;-73
2023/07/31 01:10:58;;;;;;;0.00;0.00;;;14.80;99.90;;;;;;5068492;28;20065;-73
2023/07/31 01:13:24;;;;;;;0.28;0.10;;;14.80;99.90;;;;;;5074714;28;20123;-73
2023/07/31 01:15:50;;;;;;;0.05;0.05;;;14.80;99.90;;;;;;5074449;28;20132;-73
2023/07/31 01:18:15;;;;;;;0.25;0.20;;;14.80;99.90;;;;;;5072945;28;20552;-73
2023/07/31 01:20:43;;;;;;;0.00;0.00;;;14.70;99.90;;;;;;5073481;28;20037;-73
2023/07/31 01:23:34;;;;;;;0.00;0.00;;;14.80;99.90;;;;;;5074102;28;20490;-73
2023/07/31 01:26:12;;;;;;;0.10;0.10;;;14.80;99.90;;;;;;5074295;28;20131;-73
2023/07/31 01:29:01;;;;;;;0.80;0.20;;;14.80;99.90;;;;;;5074197;28;20515;-73
2023/07/31 01:31:29;;;;;;;0.65;0.43;;;14.80;99.90;;;;;;5072148;28;20054;-73
2023/07/31 01:33:59;;;;;;;0.00;0.00;;;14.80;99.90;;;;;;5074033;28;20037;-73
2023/07/31 01:36:26;;;;;;;0.17;0.10;;;14.70;99.90;;;;;;5073500;28;20524;-73
2023/07/31 01:38:51;;;;;;;0.00;0.00;;;14.80;99.90;;;;;;5064902;28;20037;-73
2023/07/31 01:41:20;;;;;;;0.25;0.25;;;15.10;99.90;;;;;;5070361;28;20045;-73
2023/07/31 01:43:46;;;;;;;0.08;0.08;;;14.70;99.90;;;;;;5073933;28;20036;-73
2023/07/31 01:46:12;;;;;;;0.35;0.35;;;14.70;99.90;;;;;;5073745;28;20435;-73
2023/07/31 01:48:37;;;;;;;0.00;0.00;;;14.70;99.90;;;;;;5073601;28;20115;-73
2023/07/31 01:51:03;;;;;;;0.10;0.10;;;14.70;99.90;;;;;;5068193;28;20479;-73
2023/07/31 01:53:31;;;;;;;0.00;0.00;;;14.70;99.90;;;;;;5073679;28;20123;-73
2023/07/31 01:55:56;;;;;;;8.00;0.68;;;14.70;99.90;;;;;;5073518;28;20044;-73
2023/07/31 01:58:22;;;;;;;0.00;0.00;;;14.70;99.90;;;;;;5073681;28;20048;-73
2023/07/31 02:00:47;;;;;;;0.00;0.00;;;14.70;99.90;;;;;;5072660;28;20037;-73
2023/07/31 02:03:13;;;;;;;0.10;0.10;;;14.70;99.90;;;;;;5062319;28;20072;-73
2023/07/31 02:05:46;;;;;;;0.00;0.00;;;14.80;99.90;;;;;;5062030;28;20112;-73
2023/07/31 02:08:11;;;;;;;0.08;0.00;;;14.70;99.90;;;;;;5072299;28;20436;-73
2023/07/31 02:10:37;;;;;;;0.22;0.20;;;14.70;99.90;;;;;;5072258;28;20033;-73
2023/07/31 02:13:03;;;;;;;0.25;0.22;;;14.70;99.90;;;;;;5073168;28;20246;-74
2023/07/31 02:15:30;;;;;;;0.10;0.10;;;14.70;99.90;;;;;;5073111;28;20403;-74
2023/07/31 02:17:55;;;;;;;0.00;0.00;;;14.80;99.90;;;;;;5072229;28;20568;-74
2023/07/31 02:20:21;;;;;;;0.00;0.00;;;14.70;99.90;;;;;;5072375;28;20075;-74
2023/07/31 02:22:46;;;;;;;0.00;0.00;;;14.70;99.90;;;;;;5073163;28;20115;-74
2023/07/31 02:25:12;;;;;;;0.00;0.00;;;14.70;99.90;;;;;;5072923;28;20059;-74
2023/07/31 02:27:38;;;;;;;0.00;0.00;;;14.70;99.90;;;;;;5072473;28;20048;-74
2023/07/31 02:30:04;;;;;;;0.00;0.00;;;14.70;99.90;;;;;;5067212;28;20048;-74
2023/07/31 02:32:29;;;;;;;0.00;0.00;;;14.70;99.90;;;;;;5073289;28;20384;-74
2023/07/31 02:34:55;;;;;;;0.15;0.05;;;14.70;99.90;;;;;;5072925;28;20487;-73
2023/07/31 02:37:20;;;;;;;0.00;0.00;;;14.70;99.90;;;;;;5072282;28;20390;-73
2023/07/31 02:39:46;;;;;;;0.00;0.00;;;14.70;99.90;;;;;;5070738;28;20041;-73
2023/07/31 02:42:12;;;;;;;0.10;0.05;;;14.70;99.90;;;;;;5069509;28;20036;-73
2023/07/31 02:44:38;;;;;;;0.00;0.00;;;14.70;99.90;;;;;;5071580;28;20076;-73
2023/07/31 02:47:04;;;;;;;0.00;0.00;;;14.70;99.90;;;;;;5072380;28;20080;-73
2023/07/31 02:49:30;;;;;;;0.00;0.00;;;14.70;99.90;;;;;;5072220;28;20036;-74
2023/07/31 02:51:55;;;;;;;0.00;0.00;;;14.70;99.90;;;;;;5072089;28;20103;-73
2023/07/31 02:54:21;;;;;;;0.17;0.17;;;14.70;99.90;;;;;;5072417;28;20086;-73
2023/07/31 02:56:47;;;;;;;1.20;0.30;;;14.70;99.90;;;;;;5072380;28;20437;-74
2023/07/31 02:59:13;;;;;;;0.00;0.00;;;14.70;99.90;;;;;;5072087;28;20041;-74
2023/07/31 03:01:39;;;;;;;0.00;0.00;;;14.70;99.90;;;;;;5072062;28;20403;-74
2023/07/31 03:04:05;;;;;;;0.00;0.00;;;14.70;99.90;;;;;;5072569;28;20037;-74
2023/07/31 03:06:30;;;;;;;0.00;0.00;;;14.70;99.90;;;;;;5072389;28;20182;-74
2023/07/31 03:08:56;;;;;;;0.00;0.00;;;14.70;99.90;;;;;;5072362;28;20037;-74
2023/07/31 03:11:21;;;;;;;0.00;0.00;;;14.70;99.90;;;;;;5063954;28;20053;-74
2023/07/31 03:13:47;;;;;;;0.00;0.00;;;15.00;99.90;;;;;;5072216;28;20384;-74
2023/07/31 03:16:13;;;;;;;0.00;0.00;;;14.70;99.90;;;;;;5072753;28;20403;-74
2023/07/31 03:18:38;;;;;;;0.00;0.00;;;14.70;99.90;;;;;;5072390;28;20483;-74
2023/07/31 03:21:04;;;;;;;0.00;0.00;;;14.80;99.90;;;;;;5071550;28;20048;-74
2023/07/31 03:23:30;;;;;;;0.10;0.10;;;14.70;99.90;;;;;;5072343;28;20113;-74
2023/07/31 03:25:57;;;;;;;0.08;0.05;;;14.70;99.90;;;;;;5072195;28;20044;-74
2023/07/31 03:28:22;;;;;;;0.00;0.00;;;14.70;99.90;;;;;;5063945;28;20045;-74
2023/07/31 03:30:48;;;;;;;0.17;0.03;;;14.90;99.90;;;;;;5071551;28;20043;-74
2023/07/31 03:33:13;;;;;;;0.00;0.00;;;14.70;99.90;;;;;;5072324;28;20540;-74
2023/07/31 03:35:39;;;;;;;0.00;0.00;;;14.90;99.90;;;;;;5072259;28;20108;-74
2023/07/31 03:38:05;;;;;;;0.00;0.00;;;14.80;99.90;;;;;;5072114;28;20036;-74
2023/07/31 03:40:30;;;;;;;0.00;0.00;;;14.70;99.90;;;;;;5060505;28;20067;-74
2023/07/31 03:42:56;;;;;;;0.20;0.13;;;14.80;99.90;;;;;;5066336;28;20071;-74
2023/07/31 03:45:22;;;;;;;0.00;0.00;;;14.80;99.90;;;;;;5072127;28;20044;-75
2023/07/31 03:47:47;;;;;;;0.20;0.10;;;14.90;99.90;;;;;;5072204;28;20072;-74
2023/07/31 03:50:13;;;;;;;0.00;0.00;;;14.80;99.90;;;;;;5071242;28;20451;-74
2023/07/31 03:52:38;;;;;;;0.00;0.00;;;14.90;99.90;;;;;;5071054;28;20137;-74
2023/07/31 03:55:04;;;;;;;0.00;0.00;;;14.90;99.90;;;;;;5069669;28;20122;-75
2023/07/31 03:57:32;;;;;;;0.00;0.00;;;14.90;99.90;;;;;;5071795;28;20068;-74
2023/07/31 03:59:58;;;;;;;0.00;0.00;;;14.90;99.90;;;;;;5071208;28;20041;-74
2023/07/31 04:02:24;;;;;;;0.10;0.10;;;14.80;99.90;;;;;;5075512;28;20403;-74
2023/07/31 04:04:49;;;;;;;0.00;0.00;;;14.90;99.90;;;;;;5074998;28;20055;-74
2023/07/31 04:07:15;;;;;;;0.00;0.00;;;15.10;99.90;;;;;;5075814;28;20483;-74
2023/07/31 04:09:40;;;;;;;0.00;0.00;;;14.90;99.90;;;;;;5074691;28;20115;-74
2023/07/31 04:12:06;;;;;;;0.00;0.00;;;14.90;99.90;;;;;;5075248;28;20060;-74
2023/07/31 04:14:32;;;;;;;0.00;0.00;;;14.90;99.90;;;;;;5075489;28;20472;-74
2023/07/31 04:16:58;;;;;;;0.00;0.00;;;14.90;99.90;;;;;;5075436;28;20124;-74
2023/07/31 04:19:24;;;;;;;0.00;0.00;;;15.00;99.90;;;;;;5075488;28;20063;-74
2023/07/31 04:21:50;;;;;;;0.00;0.00;;;15.00;99.90;;;;;;5074402;28;20511;-74
2023/07/31 04:24:15;;;;;;;0.00;0.00;;;15.20;99.90;;;;;;5068339;28;20040;-74
2023/07/31 04:26:41;;;;;;;0.00;0.00;;;15.20;99.90;;;;;;5069126;28;20124;-74
2023/07/31 04:29:07;;;;;;;0.00;0.00;;;15.00;99.90;;;;;;5074273;28;20124;-74
2023/07/31 04:31:34;;;;;;;0.00;0.00;;;15.00;99.90;;;;;;5064030;28;20071;-74
2023/07/31 04:33:59;;;;;;;0.00;0.00;;;15.00;99.90;;;;;;5065670;28;20128;-74
2023/07/31 04:36:25;;;;;;;0.35;0.20;;;15.10;99.90;;;;;;5075041;28;20119;-74
2023/07/31 04:38:50;;;;;;;0.00;0.00;;;15.10;99.90;;;;;;5074701;28;20036;-74
2023/07/31 04:41:16;;;;;;;0.00;0.00;;;15.10;99.90;;;;;;5073549;28;20507;-74
2023/07/31 04:43:42;;;;;;;1.13;0.10;;;15.10;99.90;;;;;;5075201;28;20048;-75
2023/07/31 04:46:07;;;;;;;0.00;0.00;;;15.10;99.90;;;;;;5072456;28;20056;-75
2023/07/31 04:48:33;;;;;;;0.00;0.00;;;15.20;99.90;;;;;;5071862;28;20581;-75
2023/07/31 04:50:58;;;;;;;0.00;0.00;;;15.10;99.90;;;;;;5070863;28;20044;-74
2023/07/31 04:53:24;;;;;;;0.00;0.00;;;15.10;99.90;;;;;;5071634;28;20233;-74
2023/07/31 04:55:49;;;;;;;0.10;0.05;;;15.10;99.90;;;;;;5071575;28;20037;-75
2023/07/31 04:58:15;;;;;;;0.00;0.00;;;15.10;99.90;;;;;;5067044;28;20040;-74
2023/07/31 05:00:41;;;;;;;0.00;0.00;;;15.10;99.90;;;;;;5069239;28;20170;-74
2023/07/31 05:03:07;;;;;;;0.00;0.00;;;15.10;99.90;;;;;;5071655;28;20399;-74
2023/07/31 05:05:32;;;;;;;3.20;0.95;;;15.10;99.90;;;;;;5071268;28;20503;-74
2023/07/31 05:07:58;;;;;;;0.00;0.00;;;15.10;99.90;;;;;;5071487;28;20056;-74
2023/07/31 05:10:24;;;;;;;0.00;0.00;;;15.10;99.90;;;;;;5070373;28;20048;-74
2023/07/31 05:12:49;;;;;;;0.00;0.00;;;15.10;99.90;;;;;;5069273;28;20482;-74
2023/07/31 05:15:15;;;;;;;0.00;0.00;;;15.10;99.90;;;;;;5070565;28;20067;-74
2023/07/31 05:17:40;;;;;;;0.00;0.00;;;15.10;99.90;;;;;;5071214;28;20047;-74
2023/07/31 05:20:07;;;;;;;0.00;0.00;;;15.10;99.90;;;;;;5071158;28;20531;-74
2023/07/31 05:22:32;;;;;;;0.00;0.00;;;15.10;99.90;;;;;;5071662;28;20036;-74
2023/07/31 05:24:58;;;;;;;0.00;0.00;;;15.20;99.90;;;;;;5071651;28;20139;-74
2023/07/31 05:27:23;;;;;;;0.00;0.00;;;15.20;99.90;;;;;;5074146;28;20039;-73
2023/07/31 05:29:49;;;;;;;0.00;0.00;;;15.20;99.90;;;;;;5073855;28;20137;-74
2023/07/31 05:32:15;;;;;;;2.05;0.70;;;15.20;99.90;;;;;;5074092;28;20037;-74
2023/07/31 05:34:40;;;;;;;0.00;0.00;;;15.20;99.90;;;;;;5073282;28;20054;-74
2023/07/31 05:37:06;;;;;;;0.10;0.03;;;15.30;99.90;;;;;;5073814;28;20076;-74
2023/07/31 05:39:32;;;;;;;0.00;0.00;;;15.40;99.90;;;;;;5073778;28;20407;-74
2023/07/31 05:41:57;;;;;;;0.10;0.10;;;15.40;99.90;;;;;;5074005;28;20064;-74
2023/07/31 05:44:23;;;;;;;0.00;0.00;;;15.40;99.90;;;;;;5073719;28;20086;-74
2023/07/31 05:46:48;;;;;;;0.05;0.05;;;15.60;99.90;;;;;;5073853;28;20040;-73
2023/07/31 05:49:14;;;;;;;2.05;0.75;;;15.50;99.90;;;;;;5073785;28;20102;-73
2023/07/31 05:51:40;;;;;;;0.20;0.10;;;15.50;99.90;;;;;;5073714;28;20072;-74
2023/07/31 05:54:05;;;;;;;0.05;0.05;;;15.50;99.90;;;;;;5073614;28;20513;-74
2023/07/31 05:56:31;;;;;;;0.00;0.00;;;15.60;99.90;;;;;;5073237;28;20090;-74
2023/07/31 05:58:57;;;;;;;0.00;0.00;;;15.60;99.90;;;;;;5073816;28;20032;-73
2023/07/31 06:01:22;;;;;;;1.88;0.25;;;15.60;99.90;;;;;;5073534;28;20040;-74
2023/07/31 06:03:48;;;;;;;0.10;0.10;;;15.70;99.90;;;;;;5073517;28;20044;-74
2023/07/31 06:06:14;;;;;;;0.00;0.00;;;15.70;99.90;;;;;;5073338;28;20039;-73
2023/07/31 06:08:40;;;;;;;0.25;0.25;;;15.80;99.90;;;;;;5073231;28;20052;-74
2023/07/31 06:11:07;;;;;;;0.13;0.13;;;15.80;99.90;;;;;;5073079;28;20518;-74
2023/07/31 06:13:32;;;;;;;0.00;0.00;;;15.80;99.90;;;;;;5073672;28;20071;-73
2023/07/31 06:15:59;;;;;;;0.30;0.25;;;16.00;99.90;;;;;;5073081;28;20040;-73
2023/07/31 06:18:25;;;;;;;3.08;1.45;;;16.00;99.90;;;;;;5073144;28;20470;-74
2023/07/31 06:20:53;;;;;;;1.13;0.30;;;16.30;99.90;;;;;;5073049;28;20124;-73
2023/07/31 06:23:20;;;;;;;3.55;1.33;;;16.60;99.90;;;;;;5072209;28;20158;-73
2023/07/31 06:25:45;;;;;;;0.52;0.32;;;16.60;99.90;;;;;;5073129;28;20051;-73
2023/07/31 06:28:11;;;;;;;6.97;0.93;;;16.60;99.90;;;;;;5072982;28;20119;-73
2023/07/31 06:30:37;;;;;;;0.32;0.32;;;16.80;99.90;;;;;;5073088;28;20080;-73
2023/07/31 06:33:02;;;;;;;0.50;0.35;;;16.90;99.90;;;;;;5073047;28;20483;-73
2023/07/31 06:35:28;;;;;;;0.17;0.17;;;16.90;99.90;;;;;;5072836;28;20032;-73
2023/07/31 06:37:54;;;;;;;9.95;1.23;;;16.80;99.90;;;;;;5072640;28;20449;-73
2023/07/31 06:40:19;;;;;;;3.10;2.28;;;16.80;99.90;;;;;;5072762;28;20048;-73
2023/07/31 06:42:45;;;;;;;0.45;0.35;;;16.80;99.90;;;;;;5072878;28;20467;-73
2023/07/31 06:45:11;;;;;;;1.23;1.13;;;16.70;99.90;;;;;;5072796;28;20033;-73
2023/07/31 06:47:36;;;;;;;2.97;1.27;;;16.70;99.90;;;;;;5072742;28;20036;-73
2023/07/31 06:50:02;;;;;;;1.40;0.90;;;16.80;99.90;;;;;;5072691;28;20064;-73
2023/07/31 06:52:28;;;;;;;0.65;0.47;;;16.90;99.90;;;;;;5072459;28;20460;-73
2023/07/31 06:55:16;;;;;;;0.08;0.08;;;16.90;99.90;;;;;;5072577;28;20059;-73
2023/07/31 06:57:42;;;;;;;2.63;0.52;;;17.00;99.90;;;;;;5072574;28;20058;-73
2023/07/31 07:00:09;;;;;;;0.80;0.75;;;17.00;99.90;;;;;;5072703;28;20119;-73
2023/07/31 07:02:35;;;;;;;1.77;0.40;;;17.00;99.90;;;;;;5072453;28;20039;-73
2023/07/31 07:05:00;;;;;;;0.50;0.32;;;17.10;99.90;;;;;;5072336;28;20036;-73
2023/07/31 07:07:26;;;;;;;1.00;0.90;;;17.10;99.90;;;;;;5072615;28;20040;-73
2023/07/31 07:09:52;;;;;;;0.35;0.32;;;17.10;99.90;;;;;;5072352;28;20045;-73
2023/07/31 07:12:17;;;;;;;1.05;0.50;;;17.10;99.90;;;;;;5072396;28;20051;-73
2023/07/31 07:14:43;;;;;;;0.22;0.22;;;17.10;99.90;;;;;;5072337;28;20037;-73
2023/07/31 07:17:09;;;;;;;1.17;0.90;;;17.10;99.90;;;;;;5072407;28;20033;-73
2023/07/31 07:19:34;;;;;;;2.22;1.38;;;17.00;99.90;;;;;;5072355;28;20032;-73
2023/07/31 07:22:01;;;;;;;0.47;0.40;;;17.10;99.90;;;;;;5072445;28;20498;-73
2023/07/31 07:24:27;;;;;;;0.03;0.03;;;16.90;99.90;;;;;;5072279;28;20510;-73
2023/07/31 07:26:53;;;;;;;1.25;0.68;;;16.80;99.90;;;;;;5072371;28;20049;-73
2023/07/31 07:29:18;;;;;;;1.17;0.65;;;16.70;99.90;;;;;;5072300;28;20037;-73
2023/07/31 07:31:44;;;;;;;5.00;1.63;;;16.70;99.90;;;;;;5072149;28;20479;-73
2023/07/31 07:34:10;;;;;;;0.98;0.70;;;16.70;99.90;;;;;;5072120;28;20487;-73
2023/07/31 07:36:35;;;;;;;1.38;0.82;;;16.70;99.90;;;;;;5076133;28;20044;-73
2023/07/31 07:39:01;;;;;;;0.82;0.47;;;16.70;99.90;;;;;;5076204;28;20109;-73
2023/07/31 07:41:26;;;;;;;0.98;0.52;;;16.70;99.90;;;;;;5076186;28;20106;-73
2023/07/31 07:43:52;;;;;;;4.38;0.75;;;16.70;99.90;;;;;;5076367;28;20097;-73
2023/07/31 07:46:18;;;;;;;0.20;0.20;;;16.70;99.90;;;;;;5076534;28;20063;-73
2023/07/31 07:48:43;;;;;;;0.40;0.22;;;16.70;99.90;;;;;;5076029;28;20051;-74
2023/07/31 07:51:09;;;;;;;1.60;0.80;;;16.60;99.90;;;;;;5075971;28;20430;-73
2023/07/31 07:53:34;;;;;;;3.83;0.57;;;16.70;99.90;;;;;;5075981;28;20110;-73
2023/07/31 07:56:00;;;;;;;1.88;0.47;;;16.60;99.90;;;;;;5075920;28;20487;-74
2023/07/31 07:58:25;;;;;;;0.20;0.20;;;16.60;99.90;;;;;;5075962;28;20036;-73
2023/07/31 08:00:51;;;;;;;0.43;0.35;;;16.60;99.90;;;;;;5075762;28;20035;-73
2023/07/31 08:03:17;;;;;;;0.00;0.00;;;16.60;99.90;;;;;;5075825;28;20040;-73
2023/07/31 08:05:44;;;;;;;0.20;0.20;;;16.60;99.90;;;;;;5075908;28;20063;-73
2023/07/31 08:08:16;;;;;;;0.57;0.05;;;16.60;99.90;;;;;;5075879;28;20444;-73
2023/07/31 08:10:42;;;;;;;0.00;0.00;;;16.50;99.90;;;;;;5075480;28;20094;-73
2023/07/31 08:13:08;;;;;;;0.00;0.00;;;16.60;99.90;;;;;;5075763;28;20052;-73
2023/07/31 08:15:33;;;;;;;0.40;0.05;;;16.70;99.90;;;;;;5075547;28;20476;-73
2023/07/31 08:17:59;;;;;;;0.10;0.10;;;16.80;99.90;;;;;;5075214;28;20036;-73
2023/07/31 08:20:26;;;;;;;0.00;0.00;;;16.80;99.90;;;;;;5075437;28;20044;-73
2023/07/31 08:22:52;;;;;;;0.25;0.22;;;16.80;99.90;;;;;;5075481;28;20487;-73
2023/07/31 08:25:18;;;;;;;0.03;0.03;;;16.80;99.90;;;;;;5066847;28;20048;-73
2023/07/31 08:27:44;;;;;;;0.90;0.63;;;16.80;99.90;;;;;;5075489;28;20048;-73
2023/07/31 08:30:11;;;;;;;0.10;0.10;;;16.90;99.90;;;;;;5075060;28;20037;-73
2023/07/31 08:32:37;;;;;;;0.00;0.00;;;17.00;99.90;;;;;;5075195;28;20040;-73
2023/07/31 08:35:03;;;;;;;0.28;0.28;;;17.00;99.90;;;;;;5075314;28;20089;-73
2023/07/31 08:37:28;;;;;;;0.47;0.47;;;17.00;99.90;;;;;;5075292;28;20123;-73
2023/07/31 08:39:54;;;;;;;0.00;0.00;;;17.20;99.90;;;;;;5075140;28;20052;-73
2023/07/31 08:42:20;;;;;;;0.00;0.00;;;17.10;99.90;;;;;;5075141;28;20055;-73
2023/07/31 08:44:46;;;;;;;0.00;0.00;;;17.00;99.90;;;;;;5074935;28;20545;-73
2023/07/31 08:47:13;;;;;;;0.15;0.15;;;17.00;99.90;;;;;;5074185;28;20040;-73
2023/07/31 08:49:40;;;;;;;0.00;0.00;;;17.20;99.90;;;;;;5075124;28;20032;-73
2023/07/31 08:52:06;;;;;;;5.75;0.52;;;17.20;99.90;;;;;;5074991;28;20037;-73
2023/07/31 08:54:33;;;;;;;0.00;0.00;;;17.40;99.90;;;;;;5074905;28;20078;-73
2023/07/31 08:56:59;;;;;;;0.30;0.08;;;17.50;99.90;;;;;;5074707;28;20043;-73
2023/07/31 08:59:28;;;;;;;0.40;0.25;;;17.50;99.90;;;;;;5074712;28;20105;-73
2023/07/31 09:01:57;;;;;;;0.22;0.10;;;17.60;99.90;;;;;;5066269;28;20376;-73
2023/07/31 09:04:24;;;;;;;0.57;0.52;;;17.60;99.90;;;;;;5074829;28;20048;-73
2023/07/31 09:06:54;;;;;;;0.00;0.00;;;17.70;99.90;;;;;;5074760;28;20041;-73
2023/07/31 09:09:20;;;;;;;0.00;0.00;;;17.90;99.90;;;;;;5074563;28;20075;-73
2023/07/31 09:11:46;;;;;;;0.00;0.00;;;18.10;99.90;;;;;;5074249;28;20110;-73
2023/07/31 09:14:13;;;;;;;0.00;0.00;;;18.30;99.90;;;;;;5074534;28;20045;-73
2023/07/31 09:16:53;;;;;;;0.00;0.00;;;18.30;99.90;;;;;;5074241;28;20045;-73
2023/07/31 09:19:43;;;;;;;0.00;0.00;;;18.30;99.90;;;;;;5067166;28;20517;-73
2023/07/31 09:22:08;;;;;;;0.00;0.00;;;18.30;99.90;;;;;;5074251;28;20070;-73
2023/07/31 09:24:35;;;;;;;0.00;0.00;;;18.20;99.90;;;;;;5073410;28;20395;-73
2023/07/31 09:27:02;;;;;;;0.00;0.00;;;18.10;99.90;;;;;;5074218;28;20400;-73
2023/07/31 09:29:29;;;;;;;0.00;0.00;;;18.10;99.90;;;;;;5074391;28;20411;-73
2023/07/31 09:31:55;;;;;;;0.00;0.00;;;18.00;99.90;;;;;;5074341;28;20045;-73
2023/07/31 09:34:40;;;;;;;0.35;0.25;;;18.10;99.90;;;;;;5073915;28;20453;-73
2023/07/31 09:37:06;;;;;;;0.00;0.00;;;18.10;99.90;;;;;;5073922;28;20052;-73
2023/07/31 09:39:32;;;;;;;0.57;0.08;;;18.10;99.90;;;;;;5074029;28;20045;-73
2023/07/31 09:41:57;;;;;;;0.00;0.00;;;18.10;99.90;;;;;;5073817;28;20041;-73
2023/07/31 09:44:42;;;;;;;0.00;0.00;;;18.10;99.90;;;;;;5073783;28;20398;-74
2023/07/31 09:47:24;;;;;;;0.43;0.13;;;18.10;99.90;;;;;;5073826;28;20047;-73
2023/07/31 09:49:49;;;;;;;0.00;0.00;;;18.10;99.90;;;;;;5066134;28;20135;-73
2023/07/31 09:52:15;;;;;;;0.00;0.00;;;18.50;99.90;;;;;;5073793;28;20045;-73
2023/07/31 09:54:41;;;;;;;0.00;0.00;;;18.70;99.90;;;;;;5073538;28;20136;-73
2023/07/31 09:57:08;;;;;;;0.00;0.00;;;18.90;99.90;;;;;;5066697;28;20037;-73
2023/07/31 09:59:33;;;;;;;0.00;0.00;;;18.80;99.90;;;;;;5069473;28;20518;-73
2023/07/31 10:01:59;;;;;;;0.20;0.15;;;18.70;99.90;;;;;;5070101;28;20072;-73
2023/07/31 10:04:28;;;;;;;0.00;0.00;;;18.60;99.90;;;;;;5070260;28;20036;-73
2023/07/31 10:06:54;;;;;;;0.00;0.00;;;19.10;99.90;;;;;;5070099;28;20092;-73
2023/07/31 10:09:24;;;;;;;0.00;0.00;;;19.30;99.90;;;;;;5070419;28;20086;-73
2023/07/31 10:11:59;;;;;;;0.00;0.00;;;19.30;99.90;;;;;;5066827;28;20124;-73
2023/07/31 10:14:27;;;;;;;0.00;0.00;;;19.20;99.90;;;;;;5061534;28;20380;-74
2023/07/31 10:16:53;;;;;;;0.00;0.00;;;19.00;99.90;;;;;;5069769;28;20036;-74
2023/07/31 10:19:20;;;;;;;0.00;0.00;;;19.00;99.90;;;;;;5070347;28;20059;-74
2023/07/31 10:21:48;;;;;;;0.10;0.10;;;18.90;99.90;;;;;;5070346;28;20044;-74
2023/07/31 10:24:15;;;;;;;0.00;0.00;;;18.80;99.90;;;;;;5069947;28;20036;-74
2023/07/31 10:26:45;;;;;;;0.00;0.00;;;18.70;99.90;;;;;;5069963;28;20488;-74
2023/07/31 10:29:10;;;;;;;0.32;0.25;;;19.10;99.90;;;;;;5069767;28;20060;-74
2023/07/31 10:31:38;;;;;;;0.00;0.00;;;19.00;99.90;;;;;;5070112;28;20480;-74
2023/07/31 10:34:04;;;;;;;0.00;0.00;;;19.20;99.90;;;;;;5070410;28;20051;-74
2023/07/31 10:36:29;;;;;;;0.00;0.00;;;19.30;99.90;;;;;;5069939;28;20041;-74
2023/07/31 10:38:58;;;;;;;0.00;0.00;;;19.30;99.90;;;;;;5069812;28;20040;-74
2023/07/31 10:41:31;;;;;;;0.00;0.00;;;19.30;99.90;;;;;;5069508;28;20123;-74
2023/07/31 10:44:07;;;;;;;0.00;0.00;;;19.40;99.90;;;;;;5069661;28;20045;-74
2023/07/31 10:46:32;;;;;;;0.00;0.00;;;19.10;99.90;;;;;;5069648;28;20091;-74
2023/07/31 10:49:00;;;;;;;0.00;0.00;;;19.00;99.90;;;;;;5069715;28;20076;-74
2023/07/31 10:51:34;;;;;;;0.00;0.00;;;19.00;99.90;;;;;;5069510;28;20041;-74
2023/07/31 10:54:15;;;;;;;0.00;0.00;;;19.00;99.90;;;;;;5070170;28;20029;-74
2023/07/31 10:56:45;;;;;;;0.00;0.00;;;19.00;99.90;;;;;;5069521;28;20041;-74
2023/07/31 10:59:12;;;;;;;0.00;0.00;;;19.20;99.90;;;;;;5067661;28;20398;-74
2023/07/31 11:01:58;;;;;;;0.00;0.00;;;19.30;99.90;;;;;;5062363;28;20084;-74
2023/07/31 11:04:27;;;;;;;0.20;0.10;;;19.20;99.90;;;;;;5067661;28;20189;-74
2023/07/31 11:06:57;;;;;;;0.00;0.00;;;19.00;99.90;;;;;;5069124;28;20832;-74
2023/07/31 11:09:25;;;;;;;0.00;0.00;;;18.90;99.90;;;;;;5069059;28;20051;-75
2023/07/31 11:11:52;;;;;;;0.00;0.00;;;18.90;99.90;;;;;;5069044;28;20720;-75
2023/07/31 11:14:18;;;;;;;0.00;0.00;;;18.80;99.90;;;;;;5069480;28;20047;-75
2023/07/31 11:16:43;;;;;;;0.00;0.00;;;18.70;99.90;;;;;;5069272;28;20045;-75
2023/07/31 11:19:09;;;;;;;0.00;0.00;;;18.70;99.90;;;;;;5069023;28;20059;-75
2023/07/31 11:21:34;;;;;;;0.00;0.00;;;18.80;99.90;;;;;;5068644;28;20041;-74
2023/07/31 11:24:00;;;;;;;0.00;0.00;;;18.80;99.90;;;;;;5069323;28;20144;-74
2023/07/31 11:26:27;;;;;;;0.00;0.00;;;18.70;99.90;;;;;;5069055;28;20538;-75
2023/07/31 11:28:52;;;;;;;0.00;0.00;;;18.50;99.90;;;;;;5069190;28;20048;-75
2023/07/31 11:31:18;;;;;;;0.00;0.00;;;18.40;99.90;;;;;;5069077;28;20112;-74
2023/07/31 11:33:44;;;;;;;0.00;0.00;;;18.30;99.90;;;;;;5069160;28;20051;-74
2023/07/31 11:36:17;;;;;;;0.00;0.00;;;18.20;99.90;;;;;;5069027;28;20458;-75
2023/07/31 11:38:43;;;;;;;0.00;0.00;;;17.80;99.90;;;;;;5064551;28;20106;-75
2023/07/31 11:41:09;;;;;;;0.00;0.00;;;18.10;99.90;;;;;;5063500;28;20446;-75
2023/07/31 11:43:36;;;;;;;0.00;0.00;;;18.00;99.90;;;;;;5069122;28;20044;-75
2023/07/31 11:46:02;;;;;;;0.00;0.00;;;18.10;99.90;;;;;;5069144;28;20121;-75
2023/07/31 11:48:33;;;;;;;0.00;0.00;;;18.10;99.90;;;;;;5068767;28;20059;-75
2023/07/31 11:51:00;;;;;;;0.55;0.30;;;18.20;99.90;;;;;;5067610;28;20055;-75
2023/07/31 11:53:52;;;;;;;0.00;0.00;;;18.40;99.90;;;;;;5068954;28;20656;-74
2023/07/31 11:56:19;;;;;;;0.00;0.00;;;18.70;99.90;;;;;;5065193;28;20284;-75
2023/07/31 11:58:51;;;;;;;0.00;0.00;;;19.30;99.90;;;;;;5063247;28;20037;-74
2023/07/31 12:01:19;;;;;;;0.00;0.00;;;19.90;99.90;;;;;;5069102;28;20036;-74
2023/07/31 12:03:46;;;;;;;0.10;0.10;;;20.20;99.90;;;;;;5068952;28;20055;-74
2023/07/31 12:06:12;;;;;;;0.05;0.00;;;20.50;99.90;;;;;;5068769;28;20040;-74
2023/07/31 12:08:38;;;;;;;0.00;0.00;;;20.90;99.90;;;;;;5068286;28;20045;-74
2023/07/31 12:11:05;;;;;;;0.00;0.00;;;20.80;99.90;;;;;;5064417;28;20128;-74
2023/07/31 12:13:32;;;;;;;0.00;0.00;;;20.80;99.90;;;;;;5068712;28;20095;-74
2023/07/31 12:15:59;;;;;;;0.00;0.00;;;20.70;99.90;;;;;;5068860;28;20043;-74
2023/07/31 12:18:27;;;;;;;0.00;0.00;;;20.60;99.90;;;;;;5068841;28;20036;-75
2023/07/31 12:20:55;;;;;;;0.00;0.00;;;20.60;99.90;;;;;;5068777;28;20084;-74
2023/07/31 12:23:29;;;;;;;0.00;0.00;;;20.60;99.90;;;;;;5071903;28;20036;-74
2023/07/31 12:26:02;;;;;;;0.00;0.00;;;20.50;99.90;;;;;;5072085;28;20086;-74
2023/07/31 12:28:28;;;;;;;0.00;0.00;;;20.50;99.90;;;;;;5072505;28;20050;-74
2023/07/31 12:31:00;;;;;;;0.00;0.00;;;20.30;99.90;;;;;;5072064;28;20120;-74
2023/07/31 12:33:34;;;;;;;0.00;0.00;;;20.00;99.90;;;;;;5064354;28;20036;-74
2023/07/31 12:36:02;;;;;;;0.00;0.00;;;19.70;99.90;;;;;;5072150;28;20057;-74
2023/07/31 12:38:28;;;;;;;0.00;0.00;;;19.60;99.90;;;;;;5071918;28;20051;-74
2023/07/31 12:40:53;;;;;;;0.00;0.00;;;19.50;99.90;;;;;;5072296;28;20045;-74
2023/07/31 12:43:19;;;;;;;0.00;0.00;;;19.30;99.90;;;;;;5072095;28;20076;-74
2023/07/31 12:45:45;;;;;;;0.00;0.00;;;19.10;99.90;;;;;;5072001;28;20106;-74